createdAt,value
2022-12-15T00:00:23.990Z,40.10
2022-12-15T00:03:09.978Z,40.10
2022-12-15T00:05:55.844Z,40.20
2022-12-15T00:08:41.297Z,40.60
2022-12-15T00:11:26.636Z,40.70
2022-12-15T00:14:13.820Z,40.60
2022-12-15T00:16:59.356Z,40.80
2022-12-15T00:19:45.150Z,40.90
2022-12-15T00:22:31.070Z,41.30
2022-12-15T00:25:17.953Z,41.40
2022-12-15T00:28:03.317Z,41.50
2022-12-15T00:30:50.484Z,41.30
2022-12-15T00:33:36.324Z,41.30
2022-12-15T00:36:22.048Z,41.20
2022-12-15T00:38:50.088Z,41.50
2022-12-15T00:41:19.348Z,41.80
2022-12-15T00:43:47.881Z,41.70
2022-12-15T00:46:34.981Z,41.90
2022-12-15T00:49:03.376Z,41.60
2022-12-15T00:51:49.144Z,42.40
2022-12-15T00:54:34.624Z,41.30
2022-12-15T00:57:20.318Z,41.20
2022-12-15T01:00:06.030Z,41.60
2022-12-15T01:02:53.276Z,41.80
2022-12-15T01:05:39.063Z,41.50
2022-12-15T01:08:24.502Z,41.90
2022-12-15T01:11:10.039Z,41.20
2022-12-15T01:13:55.520Z,41.50
2022-12-15T01:16:41.167Z,41.60
2022-12-15T01:19:28.722Z,41.60
2022-12-15T01:21:56.727Z,41.40
2022-12-15T01:24:24.794Z,41.70
2022-12-15T01:26:52.796Z,41.70
2022-12-15T01:29:20.795Z,42.30
2022-12-15T01:31:49.609Z,42.60
2022-12-15T01:34:22.498Z,41.30
2022-12-15T01:36:50.536Z,41.80
2022-12-15T01:39:18.582Z,41.70
2022-12-15T01:41:45.619Z,41.90
2022-12-15T01:44:19.669Z,41.70
2022-12-15T01:46:50.530Z,42.70
2022-12-15T01:49:27.342Z,42.20
2022-12-15T01:52:00.214Z,42.30
2022-12-15T01:54:32.830Z,42.70
2022-12-15T01:57:06.219Z,42.40
2022-12-15T01:59:38.660Z,42.70
2022-12-15T02:02:07.116Z,42.60
2022-12-15T02:04:37.735Z,42.20
2022-12-15T02:07:05.746Z,42.70
2022-12-15T02:09:33.789Z,42.60
2022-12-15T02:12:09.857Z,41.60
2022-12-15T02:14:57.763Z,41.70
2022-12-15T02:17:36.716Z,42.60
2022-12-15T02:20:52.345Z,42.30
2022-12-15T02:24:08.189Z,42.80
2022-12-15T02:27:12.530Z,42.60
2022-12-15T02:30:19.975Z,42.70
2022-12-15T02:33:09.374Z,42.50
2022-12-15T02:35:57.503Z,43.00
2022-12-15T02:38:35.775Z,43.10
2022-12-15T02:41:06.427Z,43.00
2022-12-15T02:43:39.808Z,43.00
2022-12-15T02:46:24.301Z,43.10
2022-12-15T02:49:04.233Z,43.10
2022-12-15T02:51:48.188Z,42.40
2022-12-15T02:54:39.256Z,42.90
2022-12-15T02:57:16.306Z,43.20
2022-12-15T02:59:55.288Z,43.20
2022-12-15T03:02:28.927Z,43.40
2022-12-15T03:04:57.358Z,43.40
2022-12-15T03:07:27.673Z,42.70
2022-12-15T03:09:57.261Z,42.60
2022-12-15T03:12:25.335Z,43.00
2022-12-15T03:14:53.336Z,42.70
2022-12-15T03:17:21.413Z,43.00
2022-12-15T03:19:50.841Z,42.50
2022-12-15T03:22:18.882Z,42.90
2022-12-15T03:24:46.864Z,43.40
2022-12-15T03:27:14.961Z,43.40
2022-12-15T03:29:42.967Z,42.70
2022-12-15T03:32:11.077Z,42.90
2022-12-15T03:34:39.108Z,43.00
2022-12-15T03:37:09.129Z,43.40
2022-12-15T03:39:37.093Z,43.40
2022-12-15T03:42:05.363Z,43.40
2022-12-15T03:44:33.409Z,43.50
2022-12-15T03:47:03.601Z,43.70
2022-12-15T03:49:31.982Z,43.50
2022-12-15T03:51:59.955Z,43.60
2022-12-15T03:54:29.324Z,42.70
2022-12-15T03:56:57.303Z,43.70
2022-12-15T03:59:25.240Z,43.20
2022-12-15T04:01:53.385Z,43.50
2022-12-15T04:04:21.469Z,43.80
2022-12-15T04:06:49.432Z,43.30
2022-12-15T04:09:18.397Z,44.00
2022-12-15T04:11:47.732Z,42.70
2022-12-15T04:14:15.712Z,43.70
2022-12-15T04:16:43.810Z,43.60
2022-12-15T04:19:29.758Z,44.10
2022-12-15T04:21:58.067Z,43.80
2022-12-15T04:24:43.572Z,44.10
2022-12-15T04:27:30.525Z,44.10
2022-12-15T04:30:15.951Z,44.10
2022-12-15T04:33:01.751Z,43.70
2022-12-15T04:35:49.913Z,42.80
2022-12-15T04:38:35.597Z,43.40
2022-12-15T04:41:21.503Z,44.40
2022-12-15T04:44:08.502Z,44.30
2022-12-15T04:46:54.181Z,42.80
2022-12-15T04:49:39.743Z,44.20
2022-12-15T04:52:25.289Z,44.10
2022-12-15T04:55:10.894Z,43.70
2022-12-15T04:57:56.449Z,44.40
2022-12-15T05:00:43.287Z,44.60
2022-12-15T05:03:28.688Z,43.70
2022-12-15T05:06:16.268Z,43.70
2022-12-15T05:09:01.764Z,44.10
2022-12-15T05:11:47.764Z,43.90
2022-12-15T05:14:33.330Z,44.70
2022-12-15T05:17:20.520Z,44.80
2022-12-15T05:20:06.415Z,43.60
2022-12-15T05:22:52.402Z,44.20
2022-12-15T05:25:38.222Z,44.60
2022-12-15T05:28:25.407Z,44.70
2022-12-15T05:31:11.068Z,43.20
2022-12-15T05:33:40.387Z,38.80
2022-12-15T05:36:09.494Z,36.20
2022-12-15T05:38:37.484Z,35.20
2022-12-15T05:41:05.624Z,34.30
2022-12-15T05:43:34.306Z,34.60
2022-12-15T05:46:04.952Z,36.30
2022-12-15T05:48:33.069Z,36.70
2022-12-15T05:51:06.193Z,35.40
2022-12-15T05:53:34.507Z,36.20
2022-12-15T05:56:03.556Z,36.40
2022-12-15T05:58:31.734Z,36.30
2022-12-15T06:01:05.944Z,36.70
2022-12-15T06:03:34.819Z,36.50
2022-12-15T06:06:05.018Z,36.70
2022-12-15T06:08:35.740Z,36.40
2022-12-15T06:11:04.058Z,36.90
2022-12-15T06:13:35.445Z,36.20
2022-12-15T06:16:06.717Z,36.20
2022-12-15T06:18:37.336Z,35.90
2022-12-15T06:21:09.139Z,35.70
2022-12-15T06:23:38.128Z,35.80
2022-12-15T06:26:12.016Z,35.40
2022-12-15T06:28:40.056Z,35.40
2022-12-15T06:31:10.486Z,35.50
2022-12-15T06:33:39.696Z,35.20
2022-12-15T06:36:12.149Z,34.90
2022-12-15T06:38:43.327Z,35.10
2022-12-15T06:41:13.957Z,34.70
2022-12-15T06:43:42.886Z,34.80
2022-12-15T06:46:11.351Z,35.00
2022-12-15T06:48:39.821Z,33.60
2022-12-15T06:51:15.089Z,34.50
2022-12-15T06:53:48.597Z,34.60
2022-12-15T06:56:22.452Z,33.50
2022-12-15T06:58:54.727Z,33.20
2022-12-15T07:01:25.204Z,34.10
2022-12-15T07:03:54.218Z,33.80
2022-12-15T07:06:24.075Z,33.50
2022-12-15T07:08:56.346Z,34.20
2022-12-15T07:11:24.702Z,34.20
2022-12-15T07:13:53.955Z,34.40
2022-12-15T07:16:24.717Z,34.40
2022-12-15T07:18:52.889Z,34.20
2022-12-15T07:21:20.949Z,34.10
2022-12-15T07:23:55.671Z,33.70
2022-12-15T07:26:24.672Z,33.70
2022-12-15T07:28:53.206Z,34.40
2022-12-15T07:31:21.372Z,34.10
2022-12-15T07:33:49.479Z,34.20
2022-12-15T07:36:18.330Z,34.10
2022-12-15T07:38:50.863Z,34.30
2022-12-15T07:41:21.321Z,33.40
2022-12-15T07:43:49.707Z,33.60
2022-12-15T07:46:18.241Z,34.20
2022-12-15T07:48:50.479Z,34.50
2022-12-15T07:51:21.048Z,33.70
2022-12-15T07:53:51.220Z,33.90
2022-12-15T07:56:21.437Z,34.10
2022-12-15T07:58:50.055Z,33.20
2022-12-15T08:01:19.416Z,34.00
2022-12-15T08:03:48.384Z,33.60
2022-12-15T08:06:17.652Z,33.50
2022-12-15T08:08:50.463Z,33.00
2022-12-15T08:11:24.924Z,32.90
2022-12-15T08:14:03.036Z,33.20
2022-12-15T08:16:34.848Z,33.00
2022-12-15T08:19:05.208Z,33.00
2022-12-15T08:21:34.147Z,33.60
2022-12-15T08:24:03.305Z,32.90
2022-12-15T08:26:33.033Z,32.90
2022-12-15T08:29:40.481Z,32.80
2022-12-15T08:31:53.173Z,31.70
2022-12-15T08:34:21.715Z,30.50
2022-12-15T08:36:50.132Z,32.20
2022-12-15T08:39:18.364Z,32.50
2022-12-15T08:41:48.391Z,32.40
2022-12-15T08:44:17.062Z,32.80
2022-12-15T08:46:45.413Z,32.70
2022-12-15T08:49:18.060Z,32.50
2022-12-15T08:51:49.962Z,32.80
2022-12-15T08:54:21.397Z,32.80
2022-12-15T08:56:51.078Z,33.00
2022-12-15T08:59:19.775Z,33.00
2022-12-15T09:01:48.149Z,33.00
2022-12-15T09:04:16.580Z,33.00
2022-12-15T09:06:50.574Z,33.00
2022-12-15T09:09:20.117Z,33.00
2022-12-15T09:11:49.754Z,32.90
2022-12-15T09:14:21.687Z,33.10
2022-12-15T09:16:53.809Z,33.00
2022-12-15T09:19:21.951Z,32.90
2022-12-15T09:21:50.009Z,33.00
2022-12-15T09:24:28.730Z,32.80
2022-12-15T09:27:03.010Z,33.00
2022-12-15T09:29:31.025Z,32.80
2022-12-15T09:31:59.441Z,32.90
2022-12-15T09:34:27.510Z,33.00
2022-12-15T09:36:56.672Z,32.10
2022-12-15T09:39:24.713Z,32.60
2022-12-15T09:41:57.035Z,32.90
2022-12-15T09:44:29.076Z,32.50
2022-12-15T09:47:09.291Z,32.70
2022-12-15T09:49:54.118Z,32.90
2022-12-15T09:52:27.295Z,32.50
2022-12-15T09:54:55.753Z,31.90
2022-12-15T09:57:34.693Z,32.50
2022-12-15T10:00:21.456Z,32.70
2022-12-15T10:03:22.997Z,33.10
2022-12-15T10:06:15.975Z,32.00
2022-12-15T10:08:50.528Z,32.60
2022-12-15T10:11:27.327Z,32.80
2022-12-15T10:14:00.771Z,32.50
2022-12-15T10:16:36.031Z,32.50
2022-12-15T10:19:09.997Z,32.60
2022-12-15T10:21:38.236Z,31.70
2022-12-15T10:25:00.368Z,32.20
2022-12-15T10:27:35.992Z,31.60
2022-12-15T10:30:07.215Z,31.30
2022-12-15T10:32:51.874Z,31.10
2022-12-15T10:35:27.548Z,30.80
2022-12-15T10:37:59.793Z,31.00
2022-12-15T10:40:50.538Z,30.30
2022-12-15T10:43:37.547Z,30.30
2022-12-15T10:46:14.495Z,30.00
2022-12-15T10:48:48.681Z,30.30
2022-12-15T10:51:38.423Z,30.00
2022-12-15T10:54:13.831Z,30.50
2022-12-15T10:56:50.721Z,29.60
2022-12-15T10:59:30.784Z,29.90
2022-12-15T11:02:29.475Z,30.00
2022-12-15T11:05:01.216Z,30.00
2022-12-15T11:07:36.379Z,29.90
2022-12-15T11:10:18.730Z,30.30
2022-12-15T11:12:58.958Z,30.50
2022-12-15T11:18:43.801Z,30.40
2022-12-15T11:21:21.503Z,30.30
2022-12-15T11:24:00.236Z,30.60
2022-12-15T11:26:44.724Z,30.60
2022-12-15T11:29:25.743Z,30.50
2022-12-15T11:31:55.474Z,30.40
2022-12-15T11:34:27.987Z,30.40
2022-12-15T11:37:11.703Z,30.10
2022-12-15T11:39:53.943Z,30.30
2022-12-15T11:42:45.287Z,30.30
2022-12-15T11:45:22.324Z,30.30
2022-12-15T11:47:53.879Z,30.20
2022-12-15T11:50:31.158Z,30.00
2022-12-15T11:53:22.168Z,30.00
2022-12-15T11:56:00.871Z,29.60
2022-12-15T11:58:56.296Z,29.20
2022-12-15T12:01:55.446Z,28.80
2022-12-15T12:04:28.366Z,28.60
2022-12-15T12:07:12.207Z,28.60
2022-12-15T12:10:01.288Z,28.40
2022-12-15T12:12:34.996Z,27.70
2022-12-15T12:15:26.097Z,26.90
2022-12-15T12:17:56.876Z,26.80
2022-12-15T12:20:34.785Z,26.80
2022-12-15T12:23:07.208Z,26.30
2022-12-15T12:25:44.595Z,26.40
2022-12-15T12:28:19.190Z,26.30
2022-12-15T12:33:44.951Z,26.20
2022-12-15T12:36:15.936Z,26.00
2022-12-15T12:38:50.940Z,25.90
2022-12-15T12:41:35.568Z,26.20
2022-12-15T12:44:13.865Z,26.00
2022-12-15T12:49:39.424Z,25.60
2022-12-15T12:52:22.088Z,25.50
2022-12-15T12:54:59.141Z,25.40
2022-12-15T12:57:36.577Z,25.50
2022-12-15T13:00:20.185Z,25.30
2022-12-15T13:03:21.053Z,25.30
2022-12-15T13:05:51.791Z,25.00
2022-12-15T13:08:51.208Z,24.90
2022-12-15T13:12:10.388Z,24.70
2022-12-15T13:14:51.993Z,24.80
2022-12-15T13:17:32.146Z,24.70
2022-12-15T13:20:23.438Z,24.90
2022-12-15T13:22:52.108Z,24.80
2022-12-15T13:25:41.329Z,25.00
2022-12-15T13:28:46.036Z,24.60
2022-12-15T13:31:33.423Z,24.80
2022-12-15T13:34:27.688Z,24.80
2022-12-15T13:37:03.685Z,24.40
2022-12-15T13:39:55.832Z,24.50
2022-12-15T13:42:35.840Z,24.30
2022-12-15T13:45:39.666Z,24.20
2022-12-15T13:48:35.361Z,24.40
2022-12-15T13:51:13.416Z,24.10
2022-12-15T13:53:51.508Z,24.60
2022-12-15T13:56:42.524Z,24.40
2022-12-15T13:59:23.680Z,23.70
2022-12-15T14:01:53.770Z,24.10
2022-12-15T14:04:24.039Z,24.30
2022-12-15T14:06:55.794Z,24.10
2022-12-15T14:09:29.922Z,24.80
2022-12-15T14:11:59.106Z,24.50
2022-12-15T14:14:30.705Z,24.90
2022-12-15T14:17:02.074Z,25.20
2022-12-15T14:19:40.984Z,25.00
2022-12-15T14:22:27.653Z,25.20
2022-12-15T14:25:03.433Z,25.00
2022-12-15T14:27:34.002Z,25.70
2022-12-15T14:30:22.741Z,25.00
2022-12-15T14:32:54.764Z,25.60
2022-12-15T14:35:30.526Z,25.20
2022-12-15T14:38:01.684Z,25.70
2022-12-15T14:40:30.957Z,25.80
2022-12-15T14:42:59.164Z,26.10
2022-12-15T14:45:30.726Z,25.90
2022-12-15T14:50:51.861Z,26.60
2022-12-15T14:53:22.264Z,26.20
2022-12-15T14:55:51.497Z,26.50
2022-12-15T14:58:35.847Z,26.20
2022-12-15T15:01:07.197Z,26.40
2022-12-15T15:03:09.675Z,26.70
2022-12-15T15:03:10.971Z,25.80
2022-12-15T15:03:40.760Z,26.10
2022-12-15T15:06:19.692Z,26.20
2022-12-15T15:08:50.336Z,26.10
2022-12-15T15:11:29.277Z,26.40
2022-12-15T15:14:00.439Z,26.40
2022-12-15T15:16:29.218Z,26.30
2022-12-15T15:18:58.268Z,26.50
2022-12-15T15:21:30.955Z,26.20
2022-12-15T15:24:01.553Z,26.60
2022-12-15T15:26:30.861Z,26.80
2022-12-15T15:28:59.339Z,27.40
2022-12-15T15:31:40.300Z,27.40
2022-12-15T15:34:09.197Z,27.80
2022-12-15T15:36:40.122Z,27.90
2022-12-15T15:39:15.123Z,28.00
2022-12-15T15:41:43.327Z,28.10
2022-12-15T15:44:15.489Z,28.30
2022-12-15T15:46:49.599Z,28.20
2022-12-15T15:49:21.212Z,28.30
2022-12-15T15:51:50.676Z,28.50
2022-12-15T15:54:23.991Z,28.70
2022-12-15T15:56:52.105Z,28.80
2022-12-15T15:59:22.241Z,28.60
2022-12-15T16:01:55.810Z,29.00
2022-12-15T16:04:24.500Z,29.00
2022-12-15T16:06:54.382Z,29.10
2022-12-15T16:09:23.593Z,29.00
2022-12-15T16:11:51.754Z,30.10
2022-12-15T16:14:19.842Z,29.60
2022-12-15T16:16:48.010Z,29.60
2022-12-15T16:19:16.039Z,30.00
2022-12-15T16:21:44.571Z,29.90
2022-12-15T16:24:18.794Z,30.10
2022-12-15T16:26:51.213Z,30.20
2022-12-15T16:29:21.728Z,30.20
2022-12-15T16:31:50.103Z,30.40
2022-12-15T16:34:19.165Z,31.00
2022-12-15T16:36:47.722Z,30.00
2022-12-15T16:39:30.469Z,31.30
2022-12-15T16:41:58.976Z,31.40
2022-12-15T16:44:29.158Z,31.70
2022-12-15T16:46:58.708Z,31.60
2022-12-15T16:49:27.534Z,31.60
2022-12-15T16:51:55.783Z,31.80
2022-12-15T16:54:27.577Z,32.10
2022-12-15T16:56:58.183Z,31.90
2022-12-15T16:59:35.901Z,32.20
2022-12-15T17:02:25.108Z,32.00
2022-12-15T17:04:55.096Z,32.20
2022-12-15T17:07:23.473Z,31.30
2022-12-15T17:09:52.842Z,31.90
2022-12-15T17:12:20.886Z,31.90
2022-12-15T17:14:48.931Z,31.50
2022-12-15T17:17:19.310Z,32.20
2022-12-15T17:20:20.017Z,32.20
2022-12-15T17:22:37.798Z,31.50
2022-12-15T17:25:14.383Z,31.30
2022-12-15T17:27:42.467Z,30.20
2022-12-15T17:30:15.802Z,31.70
2022-12-15T17:32:44.283Z,31.30
2022-12-15T17:35:12.903Z,31.20
2022-12-15T17:37:41.769Z,31.30
2022-12-15T17:40:20.985Z,31.70
2022-12-15T17:42:49.971Z,31.70
2022-12-15T17:45:21.624Z,31.50
2022-12-15T17:47:50.234Z,31.60
2022-12-15T17:50:19.234Z,31.90
2022-12-15T17:52:49.438Z,31.70
2022-12-15T17:55:34.851Z,31.90
2022-12-15T17:58:15.470Z,32.10
2022-12-15T18:00:49.069Z,31.50
2022-12-15T18:03:17.842Z,32.20
2022-12-15T18:05:47.579Z,32.70
2022-12-15T18:08:18.604Z,32.60
2022-12-15T18:10:51.370Z,33.00
2022-12-15T18:13:22.015Z,31.60
2022-12-15T18:15:51.397Z,32.50
2022-12-15T18:18:22.152Z,32.30
2022-12-15T18:20:51.758Z,32.80
2022-12-15T18:23:25.954Z,32.80
2022-12-15T18:26:01.157Z,33.40
2022-12-15T18:28:34.402Z,32.80
2022-12-15T18:31:10.681Z,33.20
2022-12-15T18:33:38.790Z,33.40
2022-12-15T18:36:07.643Z,33.40
2022-12-15T18:38:35.718Z,33.30
2022-12-15T18:41:05.703Z,33.50
2022-12-15T18:43:35.543Z,33.50
2022-12-15T18:46:03.721Z,33.70
2022-12-15T18:48:34.930Z,33.30
2022-12-15T18:51:12.934Z,34.00
2022-12-15T18:53:41.729Z,34.00
2022-12-15T18:56:14.769Z,34.20
2022-12-15T18:58:43.578Z,34.10
2022-12-15T19:01:11.794Z,33.90
2022-12-15T19:03:40.952Z,33.10
2022-12-15T19:06:25.691Z,33.00
2022-12-15T19:08:54.323Z,33.30
2022-12-15T19:11:30.801Z,32.50
2022-12-15T19:14:00.181Z,33.20
2022-12-15T19:16:49.500Z,33.20
2022-12-15T19:19:35.304Z,33.20
2022-12-15T19:22:29.561Z,32.90
2022-12-15T19:24:58.745Z,32.90
2022-12-15T19:27:28.655Z,32.70
2022-12-15T19:29:56.754Z,31.80
2022-12-15T19:32:26.643Z,32.10
2022-12-15T19:34:54.625Z,32.60
2022-12-15T19:37:28.307Z,32.70
2022-12-15T19:39:57.377Z,32.80
2022-12-15T19:42:30.431Z,33.00
2022-12-15T19:44:58.533Z,32.90
2022-12-15T19:47:27.265Z,32.20
2022-12-15T19:49:55.270Z,32.60
2022-12-15T19:52:23.295Z,32.60
2022-12-15T19:54:51.753Z,32.20
2022-12-15T19:57:20.965Z,32.50
2022-12-15T19:59:50.381Z,33.40
2022-12-15T20:02:20.677Z,32.50
2022-12-15T20:04:49.725Z,32.30
2022-12-15T20:07:20.711Z,33.40
2022-12-15T20:09:48.790Z,33.80
2022-12-15T20:12:19.340Z,33.50
2022-12-15T20:14:47.979Z,33.40
2022-12-15T20:17:17.400Z,33.90
2022-12-15T20:19:45.573Z,33.80
2022-12-15T20:22:17.703Z,34.00
2022-12-15T20:24:46.871Z,34.20
2022-12-15T20:27:17.475Z,33.40
2022-12-15T20:29:46.236Z,34.00
2022-12-15T20:32:18.622Z,34.20
2022-12-15T20:34:46.845Z,34.20
2022-12-15T20:37:21.732Z,33.60
2022-12-15T20:39:55.515Z,33.40
2022-12-15T20:42:25.943Z,33.70
2022-12-15T20:44:54.442Z,33.70
2022-12-15T20:47:27.031Z,33.90
2022-12-15T20:49:56.401Z,33.20
2022-12-15T20:52:27.459Z,33.10
2022-12-15T20:54:56.367Z,34.20
2022-12-15T20:57:24.522Z,33.80
2022-12-15T20:59:52.687Z,34.00
2022-12-15T21:02:25.246Z,33.70
2022-12-15T21:04:53.539Z,34.00
2022-12-15T21:07:21.771Z,33.50
2022-12-15T21:09:49.815Z,33.00
2022-12-15T21:12:20.982Z,33.20
2022-12-15T21:14:49.838Z,34.10
2022-12-15T21:17:19.807Z,33.70
2022-12-15T21:19:49.960Z,33.70
2022-12-15T21:22:22.562Z,33.00
2022-12-15T21:24:53.201Z,33.00
2022-12-15T21:27:22.161Z,33.60
2022-12-15T21:29:52.920Z,33.70
2022-12-15T21:32:22.029Z,34.20
2022-12-15T21:34:51.772Z,33.70
2022-12-15T21:37:26.661Z,33.00
2022-12-15T21:39:55.711Z,33.80
2022-12-15T21:42:24.278Z,32.70
2022-12-15T21:44:52.494Z,33.50
2022-12-15T21:47:46.769Z,32.50
2022-12-15T21:50:15.773Z,33.70
2022-12-15T21:52:45.044Z,33.50
2022-12-15T21:55:16.363Z,33.70
2022-12-15T21:57:45.013Z,33.40
2022-12-15T22:00:16.725Z,33.50
2022-12-15T22:02:45.621Z,32.80
2022-12-15T22:05:21.442Z,32.70
2022-12-15T22:07:50.531Z,33.30
2022-12-15T22:10:20.254Z,33.30
2022-12-15T22:12:58.985Z,32.80
2022-12-15T22:15:29.705Z,33.50
2022-12-15T22:17:58.127Z,33.30
2022-12-15T22:20:27.544Z,32.90
2022-12-15T22:22:55.953Z,33.40
2022-12-15T22:25:26.592Z,33.00
2022-12-15T22:27:55.207Z,33.40
2022-12-15T22:30:27.166Z,33.10
2022-12-15T22:32:56.031Z,33.50
2022-12-15T22:35:28.231Z,32.90
2022-12-15T22:37:56.648Z,32.90
2022-12-15T22:40:26.812Z,33.30
2022-12-15T22:42:58.194Z,33.60
2022-12-15T22:45:26.606Z,33.70
2022-12-15T22:47:55.362Z,33.70
2022-12-15T22:50:26.381Z,33.30
2022-12-15T22:52:56.234Z,33.50
2022-12-15T22:55:25.499Z,34.10
2022-12-15T22:57:58.232Z,34.50
2022-12-15T23:00:26.819Z,35.00
2022-12-15T23:02:55.349Z,34.80
2022-12-15T23:05:23.648Z,34.90
2022-12-15T23:07:52.237Z,35.20
2022-12-15T23:10:42.083Z,35.50
2022-12-15T23:13:10.434Z,35.20
2022-12-15T23:15:58.766Z,35.20
2022-12-15T23:18:27.019Z,35.30
2022-12-15T23:20:55.650Z,35.80
2022-12-15T23:23:25.710Z,36.00
2022-12-15T23:25:55.874Z,35.90
2022-12-15T23:28:24.189Z,36.20
2022-12-15T23:30:54.189Z,36.10
2022-12-15T23:33:24.947Z,36.50
2022-12-15T23:35:54.909Z,36.20
2022-12-15T23:38:24.051Z,36.60
2022-12-15T23:40:56.233Z,36.90
2022-12-15T23:43:26.425Z,36.60
2022-12-15T23:45:59.332Z,36.60
2022-12-15T23:48:32.621Z,36.70
2022-12-15T23:51:06.703Z,36.60
2022-12-15T23:53:36.009Z,36.90
2022-12-15T23:56:12.252Z,36.70
2022-12-15T23:58:42.269Z,36.80
